sensor_id;sensor_type;location;lat;lon;timestamp;noise_LAeq;noise_LA_min;noise_LA_max;noise_LA01;noise_LA95
83034;Laerm;72848;52.216;5.616;2023-11-18T00:01:57;32.20;28.80;41.70;;
83034;Laerm;72848;52.216;5.616;2023-11-18T00:04:25;32.14;28.89;41.84;;
83034;Laerm;72848;52.216;5.616;2023-11-18T00:06:53;32.32;28.87;42.26;;
83034;Laerm;72848;52.216;5.616;2023-11-18T00:09:24;32.60;29.29;41.49;;
83034;Laerm;72848;52.216;5.616;2023-11-18T00:11:53;33.72;29.59;42.35;;
83034;Laerm;72848;52.216;5.616;2023-11-18T00:14:21;33.44;29.85;41.77;;
83034;Laerm;72848;52.216;5.616;2023-11-18T00:16:49;31.88;28.85;41.56;;
83034;Laerm;72848;52.216;5.616;2023-11-18T00:19:18;32.64;29.41;41.24;;
83034;Laerm;72848;52.216;5.616;2023-11-18T00:21:46;32.32;28.91;41.73;;
83034;Laerm;72848;52.216;5.616;2023-11-18T00:24:14;32.48;28.94;40.65;;
83034;Laerm;72848;52.216;5.616;2023-11-18T00:26:45;32.42;28.85;41.99;;
83034;Laerm;72848;52.216;5.616;2023-11-18T00:29:14;32.11;29.01;41.51;;
83034;Laerm;72848;52.216;5.616;2023-11-18T00:31:42;32.55;28.82;42.26;;
83034;Laerm;72848;52.216;5.616;2023-11-18T00:34:10;32.71;28.96;41.49;;
83034;Laerm;72848;52.216;5.616;2023-11-18T00:36:38;32.64;28.91;41.42;;
83034;Laerm;72848;52.216;5.616;2023-11-18T00:39:07;32.10;28.80;41.28;;
83034;Laerm;72848;52.216;5.616;2023-11-18T00:41:35;32.29;28.72;41.72;;
83034;Laerm;72848;52.216;5.616;2023-11-18T00:44:06;32.30;29.00;41.82;;
83034;Laerm;72848;52.216;5.616;2023-11-18T00:46:34;32.42;28.92;44.60;;
83034;Laerm;72848;52.216;5.616;2023-11-18T00:49:03;32.04;28.82;42.61;;
83034;Laerm;72848;52.216;5.616;2023-11-18T00:51:31;32.01;28.91;41.38;;
83034;Laerm;72848;52.216;5.616;2023-11-18T00:54:00;33.17;29.16;42.33;;
83034;Laerm;72848;52.216;5.616;2023-11-18T00:56:28;32.10;28.94;41.69;;
83034;Laerm;72848;52.216;5.616;2023-11-18T00:58:56;32.73;28.98;41.66;;
83034;Laerm;72848;52.216;5.616;2023-11-18T01:01:27;32.00;28.71;41.01;;
83034;Laerm;72848;52.216;5.616;2023-11-18T01:03:55;32.70;28.96;41.36;;
83034;Laerm;72848;52.216;5.616;2023-11-18T01:06:24;32.16;29.27;41.01;;
83034;Laerm;72848;52.216;5.616;2023-11-18T01:08:52;32.33;29.06;41.51;;
83034;Laerm;72848;52.216;5.616;2023-11-18T01:11:20;32.18;28.83;41.09;;
83034;Laerm;72848;52.216;5.616;2023-11-18T01:13:49;33.36;29.15;41.68;;
83034;Laerm;72848;52.216;5.616;2023-11-18T01:16:17;31.67;28.66;42.56;;
83034;Laerm;72848;52.216;5.616;2023-11-18T01:18:48;32.29;28.64;42.01;;
83034;Laerm;72848;52.216;5.616;2023-11-18T01:21:16;32.14;28.76;42.09;;
83034;Laerm;72848;52.216;5.616;2023-11-18T01:23:45;32.25;28.82;41.96;;
83034;Laerm;72848;52.216;5.616;2023-11-18T01:26:13;31.78;28.66;41.63;;
83034;Laerm;72848;52.216;5.616;2023-11-18T01:28:42;32.22;28.79;41.98;;
83034;Laerm;72848;52.216;5.616;2023-11-18T01:31:10;33.09;28.90;41.48;;
83034;Laerm;72848;52.216;5.616;2023-11-18T01:33:39;32.34;28.54;42.22;;
83034;Laerm;72848;52.216;5.616;2023-11-18T01:36:10;32.24;28.92;43.69;;
83034;Laerm;72848;52.216;5.616;2023-11-18T01:38:39;31.88;28.78;45.70;;
83034;Laerm;72848;52.216;5.616;2023-11-18T01:41:07;32.01;28.75;41.63;;
83034;Laerm;72848;52.216;5.616;2023-11-18T01:43:35;32.55;28.81;42.06;;
83034;Laerm;72848;52.216;5.616;2023-11-18T01:46:05;32.14;28.88;42.08;;
83034;Laerm;72848;52.216;5.616;2023-11-18T01:48:36;32.36;28.96;41.62;;
83034;Laerm;72848;52.216;5.616;2023-11-18T01:51:05;32.02;28.64;41.88;;
83034;Laerm;72848;52.216;5.616;2023-11-18T01:53:37;32.46;28.69;41.55;;
83034;Laerm;72848;52.216;5.616;2023-11-18T01:56:06;32.29;28.84;41.50;;
83034;Laerm;72848;52.216;5.616;2023-11-18T01:58:34;32.30;28.92;41.82;;
83034;Laerm;72848;52.216;5.616;2023-11-18T02:01:03;32.15;28.61;41.97;;
83034;Laerm;72848;52.216;5.616;2023-11-18T02:03:31;32.01;28.69;40.82;;
83034;Laerm;72848;52.216;5.616;2023-11-18T02:06:00;32.24;28.65;44.88;;
83034;Laerm;72848;52.216;5.616;2023-11-18T02:08:28;32.12;28.92;43.64;;
83034;Laerm;72848;52.216;5.616;2023-11-18T02:11:00;31.94;28.65;41.52;;
83034;Laerm;72848;52.216;5.616;2023-11-18T02:13:31;31.88;28.55;41.57;;
83034;Laerm;72848;52.216;5.616;2023-11-18T02:16:01;31.92;28.62;42.02;;
83034;Laerm;72848;52.216;5.616;2023-11-18T02:18:32;32.32;28.98;41.51;;
83034;Laerm;72848;52.216;5.616;2023-11-18T02:21:00;32.29;28.55;41.82;;
83034;Laerm;72848;52.216;5.616;2023-11-18T02:23:28;32.04;28.59;43.00;;
83034;Laerm;72848;52.216;5.616;2023-11-18T02:25:59;32.14;28.73;40.94;;
83034;Laerm;72848;52.216;5.616;2023-11-18T02:28:28;32.81;28.71;41.62;;
83034;Laerm;72848;52.216;5.616;2023-11-18T02:30:57;32.00;28.67;42.38;;
83034;Laerm;72848;52.216;5.616;2023-11-18T02:33:31;31.98;28.67;41.71;;
83034;Laerm;72848;52.216;5.616;2023-11-18T02:36:03;36.53;28.60;65.38;;
83034;Laerm;72848;52.216;5.616;2023-11-18T02:38:35;31.94;28.56;42.69;;
83034;Laerm;72848;52.216;5.616;2023-11-18T02:41:06;32.83;28.74;41.98;;
83034;Laerm;72848;52.216;5.616;2023-11-18T02:43:37;32.37;28.44;42.89;;
83034;Laerm;72848;52.216;5.616;2023-11-18T02:46:06;31.66;28.44;42.66;;
83034;Laerm;72848;52.216;5.616;2023-11-18T02:48:35;33.39;28.81;42.39;;
83034;Laerm;72848;52.216;5.616;2023-11-18T02:51:05;32.23;28.72;41.35;;
83034;Laerm;72848;52.216;5.616;2023-11-18T02:53:34;31.92;28.47;41.73;;
83034;Laerm;72848;52.216;5.616;2023-11-18T02:56:02;32.06;28.51;41.70;;
83034;Laerm;72848;52.216;5.616;2023-11-18T02:58:33;31.83;28.64;41.34;;
83034;Laerm;72848;52.216;5.616;2023-11-18T03:01:02;33.01;28.90;42.77;;
83034;Laerm;72848;52.216;5.616;2023-11-18T03:03:30;31.74;28.64;41.50;;
83034;Laerm;72848;52.216;5.616;2023-11-18T03:05:58;32.19;28.70;41.43;;
83034;Laerm;72848;52.216;5.616;2023-11-18T03:08:27;31.57;28.57;41.67;;
83034;Laerm;72848;52.216;5.616;2023-11-18T03:10:55;32.17;28.36;41.43;;
83034;Laerm;72848;52.216;5.616;2023-11-18T03:13:24;32.32;28.70;41.59;;
83034;Laerm;72848;52.216;5.616;2023-11-18T03:15:54;31.55;28.63;39.71;;
83034;Laerm;72848;52.216;5.616;2023-11-18T03:18:23;32.73;28.77;41.75;;
83034;Laerm;72848;52.216;5.616;2023-11-18T03:20:51;32.44;28.87;41.73;;
83034;Laerm;72848;52.216;5.616;2023-11-18T03:23:19;32.34;28.68;41.82;;
83034;Laerm;72848;52.216;5.616;2023-11-18T03:25:48;32.02;28.58;43.93;;
83034;Laerm;72848;52.216;5.616;2023-11-18T03:28:16;31.95;28.65;42.38;;
83034;Laerm;72848;52.216;5.616;2023-11-18T03:30:44;32.03;28.69;41.78;;
83034;Laerm;72848;52.216;5.616;2023-11-18T03:33:15;32.46;28.72;41.80;;
83034;Laerm;72848;52.216;5.616;2023-11-18T03:35:44;32.61;28.88;41.57;;
83034;Laerm;72848;52.216;5.616;2023-11-18T03:38:12;32.85;28.71;41.96;;
83034;Laerm;72848;52.216;5.616;2023-11-18T03:40:40;32.40;29.04;42.24;;
83034;Laerm;72848;52.216;5.616;2023-11-18T03:43:09;32.56;28.79;44.38;;
83034;Laerm;72848;52.216;5.616;2023-11-18T03:45:38;32.30;29.05;41.57;;
83034;Laerm;72848;52.216;5.616;2023-11-18T03:48:06;32.33;28.92;42.32;;
83034;Laerm;72848;52.216;5.616;2023-11-18T03:50:37;32.96;29.00;42.29;;
83034;Laerm;72848;52.216;5.616;2023-11-18T03:53:06;32.83;29.15;41.18;;
83034;Laerm;72848;52.216;5.616;2023-11-18T03:55:34;31.96;28.83;41.55;;
83034;Laerm;72848;52.216;5.616;2023-11-18T03:58:02;32.46;29.09;41.85;;
83034;Laerm;72848;52.216;5.616;2023-11-18T04:00:31;32.82;29.36;41.65;;
83034;Laerm;72848;52.216;5.616;2023-11-18T04:02:59;32.48;29.08;42.04;;
83034;Laerm;72848;52.216;5.616;2023-11-18T04:05:27;32.63;29.03;41.80;;
83034;Laerm;72848;52.216;5.616;2023-11-18T04:07:58;33.73;29.67;43.70;;
83034;Laerm;72848;52.216;5.616;2023-11-18T04:10:27;32.98;29.77;41.67;;
83034;Laerm;72848;52.216;5.616;2023-11-18T04:12:55;33.03;29.41;43.02;;
83034;Laerm;72848;52.216;5.616;2023-11-18T04:15:23;32.78;29.43;42.26;;
83034;Laerm;72848;52.216;5.616;2023-11-18T04:17:52;33.29;29.72;47.27;;
83034;Laerm;72848;52.216;5.616;2023-11-18T04:20:20;33.34;29.38;49.94;;
83034;Laerm;72848;52.216;5.616;2023-11-18T04:22:48;32.96;29.59;42.22;;
83034;Laerm;72848;52.216;5.616;2023-11-18T04:25:19;32.52;29.17;42.66;;
83034;Laerm;72848;52.216;5.616;2023-11-18T04:27:48;32.48;29.10;41.90;;
83034;Laerm;72848;52.216;5.616;2023-11-18T04:30:16;33.57;29.78;42.12;;
83034;Laerm;72848;52.216;5.616;2023-11-18T04:32:44;32.62;29.47;41.88;;
83034;Laerm;72848;52.216;5.616;2023-11-18T04:35:13;32.92;29.33;42.89;;
83034;Laerm;72848;52.216;5.616;2023-11-18T04:37:41;33.14;30.06;41.89;;
83034;Laerm;72848;52.216;5.616;2023-11-18T04:40:10;32.93;29.24;42.06;;
83034;Laerm;72848;52.216;5.616;2023-11-18T04:42:41;34.25;29.48;44.45;;
83034;Laerm;72848;52.216;5.616;2023-11-18T04:45:09;33.12;29.76;42.31;;
83034;Laerm;72848;52.216;5.616;2023-11-18T04:47:38;33.59;29.62;51.73;;
83034;Laerm;72848;52.216;5.616;2023-11-18T04:50:06;32.93;29.90;43.05;;
83034;Laerm;72848;52.216;5.616;2023-11-18T04:52:35;32.82;29.18;43.20;;
83034;Laerm;72848;52.216;5.616;2023-11-18T04:55:04;33.33;29.42;41.10;;
83034;Laerm;72848;52.216;5.616;2023-11-18T04:57:33;35.08;29.49;44.02;;
83034;Laerm;72848;52.216;5.616;2023-11-18T05:00:04;32.52;29.38;42.02;;
83034;Laerm;72848;52.216;5.616;2023-11-18T05:02:33;32.71;29.42;42.44;;
83034;Laerm;72848;52.216;5.616;2023-11-18T05:05:01;33.76;29.59;45.35;;
83034;Laerm;72848;52.216;5.616;2023-11-18T05:07:29;33.21;30.33;42.24;;
83034;Laerm;72848;52.216;5.616;2023-11-18T05:09:58;33.24;30.14;43.12;;
83034;Laerm;72848;52.216;5.616;2023-11-18T05:12:27;32.91;30.11;45.04;;
83034;Laerm;72848;52.216;5.616;2023-11-18T05:14:56;34.00;29.90;42.20;;
83034;Laerm;72848;52.216;5.616;2023-11-18T05:17:27;33.73;30.43;42.47;;
83034;Laerm;72848;52.216;5.616;2023-11-18T05:19:55;33.22;30.02;42.54;;
83034;Laerm;72848;52.216;5.616;2023-11-18T05:22:23;33.37;30.20;46.04;;
83034;Laerm;72848;52.216;5.616;2023-11-18T05:24:52;33.71;30.04;42.40;;
83034;Laerm;72848;52.216;5.616;2023-11-18T05:27:20;33.39;30.04;42.36;;
83034;Laerm;72848;52.216;5.616;2023-11-18T05:29:49;33.75;30.49;41.94;;
83034;Laerm;72848;52.216;5.616;2023-11-18T05:32:17;34.10;30.72;42.94;;
83034;Laerm;72848;52.216;5.616;2023-11-18T05:34:48;33.59;30.38;42.49;;
83034;Laerm;72848;52.216;5.616;2023-11-18T05:37:16;34.59;31.08;43.17;;
83034;Laerm;72848;52.216;5.616;2023-11-18T05:39:45;35.03;31.19;44.55;;
83034;Laerm;72848;52.216;5.616;2023-11-18T05:42:13;35.03;30.76;43.29;;
83034;Laerm;72848;52.216;5.616;2023-11-18T05:44:41;33.72;30.72;42.90;;
83034;Laerm;72848;52.216;5.616;2023-11-18T05:47:10;34.66;30.94;42.65;;
83034;Laerm;72848;52.216;5.616;2023-11-18T05:49:38;33.57;30.26;42.12;;
83034;Laerm;72848;52.216;5.616;2023-11-18T05:52:09;33.84;30.49;43.00;;
83034;Laerm;72848;52.216;5.616;2023-11-18T05:54:37;36.62;31.96;51.80;;
83034;Laerm;72848;52.216;5.616;2023-11-18T05:57:06;35.33;31.92;42.65;;
83034;Laerm;72848;52.216;5.616;2023-11-18T05:59:34;34.07;30.70;42.49;;
83034;Laerm;72848;52.216;5.616;2023-11-18T06:02:03;33.94;30.90;43.27;;
83034;Laerm;72848;52.216;5.616;2023-11-18T06:04:31;34.52;31.33;47.56;;
83034;Laerm;72848;52.216;5.616;2023-11-18T06:06:59;34.60;30.67;45.11;;
83034;Laerm;72848;52.216;5.616;2023-11-18T06:09:30;34.16;31.18;42.13;;
83034;Laerm;72848;52.216;5.616;2023-11-18T06:11:58;34.41;31.01;42.79;;
83034;Laerm;72848;52.216;5.616;2023-11-18T06:14:27;34.17;30.73;42.49;;
83034;Laerm;72848;52.216;5.616;2023-11-18T06:16:55;35.01;30.95;43.44;;
83034;Laerm;72848;52.216;5.616;2023-11-18T06:19:24;41.63;32.53;51.12;;
83034;Laerm;72848;52.216;5.616;2023-11-18T06:21:52;36.64;32.88;50.89;;
83034;Laerm;72848;52.216;5.616;2023-11-18T06:24:20;37.94;31.83;50.54;;
83034;Laerm;72848;52.216;5.616;2023-11-18T06:26:51;36.92;31.62;53.90;;
83034;Laerm;72848;52.216;5.616;2023-11-18T06:29:20;35.62;32.54;43.32;;
83034;Laerm;72848;52.216;5.616;2023-11-18T06:31:48;36.64;32.99;49.70;;
83034;Laerm;72848;52.216;5.616;2023-11-18T06:34:16;39.30;32.98;60.19;;
83034;Laerm;72848;52.216;5.616;2023-11-18T06:36:45;36.60;32.33;45.12;;
83034;Laerm;72848;52.216;5.616;2023-11-18T06:39:13;35.92;32.59;44.17;;
83034;Laerm;72848;52.216;5.616;2023-11-18T06:41:41;35.64;32.30;48.39;;
83034;Laerm;72848;52.216;5.616;2023-11-18T06:44:12;35.89;32.21;43.88;;
83034;Laerm;72848;52.216;5.616;2023-11-18T06:46:41;36.63;33.32;47.92;;
83034;Laerm;72848;52.216;5.616;2023-11-18T06:49:09;41.05;33.99;49.88;;
83034;Laerm;72848;52.216;5.616;2023-11-18T06:51:37;39.56;33.96;54.92;;
83034;Laerm;72848;52.216;5.616;2023-11-18T06:54:06;37.03;32.76;45.60;;
83034;Laerm;72848;52.216;5.616;2023-11-18T06:56:35;36.87;32.83;53.77;;
83034;Laerm;72848;52.216;5.616;2023-11-18T06:59:04;36.85;33.69;48.46;;
83034;Laerm;72848;52.216;5.616;2023-11-18T07:01:35;37.55;33.88;44.34;;
83034;Laerm;72848;52.216;5.616;2023-11-18T07:04:05;39.45;33.69;53.86;;
83034;Laerm;72848;52.216;5.616;2023-11-18T07:06:36;40.10;33.62;54.72;;
83034;Laerm;72848;52.216;5.616;2023-11-18T07:09:07;42.74;33.25;63.63;;
83034;Laerm;72848;52.216;5.616;2023-11-18T07:11:36;37.84;33.90;51.17;;
83034;Laerm;72848;52.216;5.616;2023-11-18T07:14:04;39.99;34.59;51.86;;
83034;Laerm;72848;52.216;5.616;2023-11-18T07:16:35;40.11;35.46;51.99;;
83034;Laerm;72848;52.216;5.616;2023-11-18T07:19:03;40.78;33.70;58.44;;
83034;Laerm;72848;52.216;5.616;2023-11-18T07:21:32;39.97;33.64;53.83;;
83034;Laerm;72848;52.216;5.616;2023-11-18T07:24:01;37.84;33.04;52.20;;
83034;Laerm;72848;52.216;5.616;2023-11-18T07:26:29;48.55;33.49;65.20;;
83034;Laerm;72848;52.216;5.616;2023-11-18T07:28:58;38.90;33.75;51.02;;
83034;Laerm;72848;52.216;5.616;2023-11-18T07:31:26;40.26;33.85;59.95;;
83034;Laerm;72848;52.216;5.616;2023-11-18T07:33:57;38.72;34.02;55.36;;
83034;Laerm;72848;52.216;5.616;2023-11-18T07:36:25;44.51;34.15;58.19;;
83034;Laerm;72848;52.216;5.616;2023-11-18T07:38:54;46.00;34.50;67.16;;
83034;Laerm;72848;52.216;5.616;2023-11-18T07:41:22;39.32;35.50;56.27;;
83034;Laerm;72848;52.216;5.616;2023-11-18T07:43:50;42.15;33.96;66.53;;
83034;Laerm;72848;52.216;5.616;2023-11-18T07:46:19;37.97;33.65;53.18;;
83034;Laerm;72848;52.216;5.616;2023-11-18T07:48:47;38.53;35.30;54.63;;
83034;Laerm;72848;52.216;5.616;2023-11-18T07:51:18;48.32;34.75;69.60;;
83034;Laerm;72848;52.216;5.616;2023-11-18T07:53:47;43.30;36.36;53.75;;
83034;Laerm;72848;52.216;5.616;2023-11-18T07:56:15;38.69;36.08;48.82;;
83034;Laerm;72848;52.216;5.616;2023-11-18T07:58:44;38.84;35.20;53.10;;
83034;Laerm;72848;52.216;5.616;2023-11-18T08:01:12;39.44;35.16;54.69;;
83034;Laerm;72848;52.216;5.616;2023-11-18T08:03:40;38.91;34.41;58.59;;
83034;Laerm;72848;52.216;5.616;2023-11-18T08:06:09;39.74;35.03;61.63;;
83034;Laerm;72848;52.216;5.616;2023-11-18T08:08:41;40.52;35.13;58.26;;
83034;Laerm;72848;52.216;5.616;2023-11-18T08:11:10;42.43;36.34;61.90;;
83034;Laerm;72848;52.216;5.616;2023-11-18T08:13:39;40.64;35.79;44.24;;
83034;Laerm;72848;52.216;5.616;2023-11-18T08:16:07;41.51;36.01;55.37;;
83034;Laerm;72848;52.216;5.616;2023-11-18T08:18:36;40.72;36.21;49.48;;
83034;Laerm;72848;52.216;5.616;2023-11-18T08:21:04;50.00;36.37;67.67;;
83034;Laerm;72848;52.216;5.616;2023-11-18T08:23:33;48.19;38.51;67.54;;
83034;Laerm;72848;52.216;5.616;2023-11-18T08:26:04;41.74;37.41;49.15;;
83034;Laerm;72848;52.216;5.616;2023-11-18T08:28:32;41.69;36.88;51.11;;
83034;Laerm;72848;52.216;5.616;2023-11-18T08:31:01;44.00;37.51;50.37;;
83034;Laerm;72848;52.216;5.616;2023-11-18T08:33:29;47.16;37.50;51.90;;
83034;Laerm;72848;52.216;5.616;2023-11-18T08:35:57;51.11;39.69;63.38;;
83034;Laerm;72848;52.216;5.616;2023-11-18T08:38:26;50.20;37.67;56.10;;
83034;Laerm;72848;52.216;5.616;2023-11-18T08:40:55;40.04;35.52;49.45;;
83034;Laerm;72848;52.216;5.616;2023-11-18T08:43:26;40.24;35.51;51.39;;
83034;Laerm;72848;52.216;5.616;2023-11-18T08:45:55;39.20;37.08;44.70;;
83034;Laerm;72848;52.216;5.616;2023-11-18T08:48:23;39.69;36.60;47.95;;
83034;Laerm;72848;52.216;5.616;2023-11-18T08:50:51;40.32;36.34;58.76;;
83034;Laerm;72848;52.216;5.616;2023-11-18T08:53:20;41.84;37.02;53.52;;
83034;Laerm;72848;52.216;5.616;2023-11-18T08:55:48;41.79;37.34;52.77;;
83034;Laerm;72848;52.216;5.616;2023-11-18T08:58:16;40.87;36.03;53.27;;
83034;Laerm;72848;52.216;5.616;2023-11-18T09:00:48;41.36;37.10;57.02;;
83034;Laerm;72848;52.216;5.616;2023-11-18T09:03:17;40.52;36.13;58.60;;
83034;Laerm;72848;52.216;5.616;2023-11-18T09:05:46;44.87;36.87;68.49;;
83034;Laerm;72848;52.216;5.616;2023-11-18T09:08:14;47.52;37.52;63.30;;
83034;Laerm;72848;52.216;5.616;2023-11-18T09:10:43;43.57;36.12;62.36;;
83034;Laerm;72848;52.216;5.616;2023-11-18T09:13:11;39.62;36.85;46.54;;
83034;Laerm;72848;52.216;5.616;2023-11-18T09:15:40;41.76;37.84;57.06;;
83034;Laerm;72848;52.216;5.616;2023-11-18T09:18:11;43.47;37.96;60.03;;
83034;Laerm;72848;52.216;5.616;2023-11-18T09:20:40;42.62;38.74;56.57;;
83034;Laerm;72848;52.216;5.616;2023-11-18T09:23:09;40.95;37.50;58.65;;
83034;Laerm;72848;52.216;5.616;2023-11-18T09:25:37;42.52;39.26;53.39;;
83034;Laerm;72848;52.216;5.616;2023-11-18T09:28:05;41.65;36.93;55.33;;
83034;Laerm;72848;52.216;5.616;2023-11-18T09:30:34;43.55;37.05;61.78;;
83034;Laerm;72848;52.216;5.616;2023-11-18T09:33:02;45.75;39.43;63.58;;
83034;Laerm;72848;52.216;5.616;2023-11-18T09:35:33;47.48;39.47;57.13;;
83034;Laerm;72848;52.216;5.616;2023-11-18T09:38:02;43.56;38.13;60.20;;
83034;Laerm;72848;52.216;5.616;2023-11-18T09:40:30;43.13;37.60;59.96;;
83034;Laerm;72848;52.216;5.616;2023-11-18T09:43:00;42.43;39.01;51.06;;
83034;Laerm;72848;52.216;5.616;2023-11-18T09:45:29;43.54;38.01;49.17;;
83034;Laerm;72848;52.216;5.616;2023-11-18T09:47:57;47.26;40.13;63.29;;
83034;Laerm;72848;52.216;5.616;2023-11-18T09:50:25;48.60;42.01;55.59;;
83034;Laerm;72848;52.216;5.616;2023-11-18T09:52:58;49.48;42.45;53.74;;
83034;Laerm;72848;52.216;5.616;2023-11-18T09:55:33;49.98;46.26;54.14;;
83034;Laerm;72848;52.216;5.616;2023-11-18T09:58:06;50.47;41.04;61.57;;
83034;Laerm;72848;52.216;5.616;2023-11-18T10:00:37;49.37;43.73;62.73;;
83034;Laerm;72848;52.216;5.616;2023-11-18T10:03:06;48.02;41.14;53.68;;
83034;Laerm;72848;52.216;5.616;2023-11-18T10:05:34;47.00;42.77;54.79;;
83034;Laerm;72848;52.216;5.616;2023-11-18T10:08:05;48.03;44.16;51.37;;
83034;Laerm;72848;52.216;5.616;2023-11-18T10:10:33;47.18;41.70;51.81;;
83034;Laerm;72848;52.216;5.616;2023-11-18T10:13:02;50.56;45.70;60.29;;
83034;Laerm;72848;52.216;5.616;2023-11-18T10:15:31;51.07;46.84;57.56;;
83034;Laerm;72848;52.216;5.616;2023-11-18T10:18:00;51.59;48.40;61.69;;
83034;Laerm;72848;52.216;5.616;2023-11-18T10:23:17;51.48;48.56;58.16;;
83034;Laerm;72848;52.216;5.616;2023-11-18T10:25:45;50.38;45.26;58.74;;
83034;Laerm;72848;52.216;5.616;2023-11-18T10:28:23;50.84;46.23;70.89;;
83034;Laerm;72848;52.216;5.616;2023-11-18T10:30:52;48.76;43.81;58.44;;
83034;Laerm;72848;52.216;5.616;2023-11-18T10:33:20;48.29;44.73;59.28;;
83034;Laerm;72848;52.216;5.616;2023-11-18T10:35:49;50.61;45.20;60.07;;
83034;Laerm;72848;52.216;5.616;2023-11-18T10:38:20;48.95;44.23;58.47;;
83034;Laerm;72848;52.216;5.616;2023-11-18T10:40:49;47.50;43.44;58.41;;
83034;Laerm;72848;52.216;5.616;2023-11-18T10:43:17;48.62;44.76;60.39;;
83034;Laerm;72848;52.216;5.616;2023-11-18T10:45:45;48.04;43.48;58.14;;
83034;Laerm;72848;52.216;5.616;2023-11-18T10:48:14;48.04;44.85;59.95;;
83034;Laerm;72848;52.216;5.616;2023-11-18T10:50:44;48.26;44.27;60.50;;
83034;Laerm;72848;52.216;5.616;2023-11-18T10:53:13;46.93;41.73;65.73;;
83034;Laerm;72848;52.216;5.616;2023-11-18T10:55:44;48.93;41.54;60.21;;
83034;Laerm;72848;52.216;5.616;2023-11-18T10:58:13;45.94;39.54;65.87;;
83034;Laerm;72848;52.216;5.616;2023-11-18T11:00:47;44.68;38.77;52.48;;
83034;Laerm;72848;52.216;5.616;2023-11-18T11:03:16;42.28;38.76;50.87;;
83034;Laerm;72848;52.216;5.616;2023-11-18T11:05:44;43.88;39.06;58.50;;
83034;Laerm;72848;52.216;5.616;2023-11-18T11:08:13;45.86;40.54;56.64;;
83034;Laerm;72848;52.216;5.616;2023-11-18T11:10:45;47.30;42.56;60.66;;
83034;Laerm;72848;52.216;5.616;2023-11-18T11:13:13;49.34;43.59;62.60;;
83034;Laerm;72848;52.216;5.616;2023-11-18T11:15:42;48.97;43.32;57.42;;
83034;Laerm;72848;52.216;5.616;2023-11-18T11:18:12;50.27;44.48;65.55;;
83034;Laerm;72848;52.216;5.616;2023-11-18T11:20:42;48.69;43.93;57.90;;
83034;Laerm;72848;52.216;5.616;2023-11-18T11:23:12;51.67;47.64;58.56;;
83034;Laerm;72848;52.216;5.616;2023-11-18T11:25:47;50.71;45.82;57.85;;
83034;Laerm;72848;52.216;5.616;2023-11-18T11:28:20;51.75;46.44;77.39;;
83034;Laerm;72848;52.216;5.616;2023-11-18T11:30:50;50.96;45.37;69.12;;
83034;Laerm;72848;52.216;5.616;2023-11-18T11:33:26;55.01;49.15;81.08;;
83034;Laerm;72848;52.216;5.616;2023-11-18T11:35:56;53.20;47.99;69.83;;
83034;Laerm;72848;52.216;5.616;2023-11-18T11:38:27;53.62;48.75;61.25;;
83034;Laerm;72848;52.216;5.616;2023-11-18T11:40:58;55.48;51.67;70.75;;
83034;Laerm;72848;52.216;5.616;2023-11-18T11:43:28;54.31;49.79;64.76;;
83034;Laerm;72848;52.216;5.616;2023-11-18T11:45:57;54.89;50.23;66.99;;
83034;Laerm;72848;52.216;5.616;2023-11-18T11:48:26;57.93;49.68;65.81;;
83034;Laerm;72848;52.216;5.616;2023-11-18T11:50:57;53.41;46.49;65.99;;
83034;Laerm;72848;52.216;5.616;2023-11-18T11:53:29;50.96;45.10;63.98;;
83034;Laerm;72848;52.216;5.616;2023-11-18T11:56:01;51.82;43.83;65.17;;
83034;Laerm;72848;52.216;5.616;2023-11-18T11:58:30;49.79;42.72;60.98;;
83034;Laerm;72848;52.216;5.616;2023-11-18T12:00:59;48.89;43.84;59.62;;
83034;Laerm;72848;52.216;5.616;2023-11-18T12:03:27;49.65;44.54;60.24;;
83034;Laerm;72848;52.216;5.616;2023-11-18T12:05:56;52.31;46.40;74.01;;
83034;Laerm;72848;52.216;5.616;2023-11-18T12:08:24;51.23;46.02;60.42;;
83034;Laerm;72848;52.216;5.616;2023-11-18T12:10:53;51.13;43.54;62.68;;
83034;Laerm;72848;52.216;5.616;2023-11-18T12:13:25;52.35;45.08;62.51;;
83034;Laerm;72848;52.216;5.616;2023-11-18T12:15:53;46.65;42.55;63.47;;
83034;Laerm;72848;52.216;5.616;2023-11-18T12:18:22;49.09;42.11;62.41;;
83034;Laerm;72848;52.216;5.616;2023-11-18T12:20:51;47.35;42.04;60.61;;
83034;Laerm;72848;52.216;5.616;2023-11-18T12:23:20;48.93;41.77;75.33;;
83034;Laerm;72848;52.216;5.616;2023-11-18T12:25:48;49.63;41.92;60.19;;
83034;Laerm;72848;52.216;5.616;2023-11-18T12:28:17;49.72;42.73;67.66;;
83034;Laerm;72848;52.216;5.616;2023-11-18T12:30:48;47.48;43.16;60.26;;
83034;Laerm;72848;52.216;5.616;2023-11-18T12:33:16;51.65;45.83;58.90;;
83034;Laerm;72848;52.216;5.616;2023-11-18T12:38:38;50.45;42.90;60.82;;
83034;Laerm;72848;52.216;5.616;2023-11-18T12:41:18;49.38;45.37;60.45;;
83034;Laerm;72848;52.216;5.616;2023-11-18T12:43:59;50.45;45.91;61.05;;
83034;Laerm;72848;52.216;5.616;2023-11-18T12:46:41;55.34;50.47;66.93;;
83034;Laerm;72848;52.216;5.616;2023-11-18T12:49:15;54.12;49.53;67.76;;
83034;Laerm;72848;52.216;5.616;2023-11-18T12:51:44;55.32;50.75;69.94;;
83034;Laerm;72848;52.216;5.616;2023-11-18T12:54:12;54.52;47.04;75.77;;
83034;Laerm;72848;52.216;5.616;2023-11-18T12:56:41;53.27;47.15;67.19;;
83034;Laerm;72848;52.216;5.616;2023-11-18T12:59:09;52.83;46.92;65.42;;
83034;Laerm;72848;52.216;5.616;2023-11-18T13:01:40;55.51;50.15;66.76;;
83034;Laerm;72848;52.216;5.616;2023-11-18T13:04:09;57.05;52.40;69.79;;
83034;Laerm;72848;52.216;5.616;2023-11-18T13:06:37;58.91;54.44;69.86;;
83034;Laerm;72848;52.216;5.616;2023-11-18T13:09:05;59.64;55.06;76.56;;
83034;Laerm;72848;52.216;5.616;2023-11-18T13:11:34;59.13;53.03;69.91;;
83034;Laerm;72848;52.216;5.616;2023-11-18T13:14:02;55.94;51.31;66.69;;
83034;Laerm;72848;52.216;5.616;2023-11-18T13:16:31;54.30;48.85;64.41;;
83034;Laerm;72848;52.216;5.616;2023-11-18T13:19:02;57.80;48.34;79.52;;
83034;Laerm;72848;52.216;5.616;2023-11-18T13:21:30;60.28;53.05;87.46;;
83034;Laerm;72848;52.216;5.616;2023-11-18T13:24:02;59.46;52.70;82.55;;
83034;Laerm;72848;52.216;5.616;2023-11-18T13:26:30;54.63;48.73;68.50;;
83034;Laerm;72848;52.216;5.616;2023-11-18T13:28:58;53.71;47.58;64.64;;
83034;Laerm;72848;52.216;5.616;2023-11-18T13:31:28;52.32;46.01;60.85;;
83034;Laerm;72848;52.216;5.616;2023-11-18T13:33:56;52.13;46.64;66.01;;
83034;Laerm;72848;52.216;5.616;2023-11-18T13:36:27;56.03;48.12;77.19;;
83034;Laerm;72848;52.216;5.616;2023-11-18T13:38:55;57.84;53.01;70.83;;
83034;Laerm;72848;52.216;5.616;2023-11-18T13:41:30;58.35;54.78;73.18;;
83034;Laerm;72848;52.216;5.616;2023-11-18T13:43:58;58.75;52.57;76.95;;
83034;Laerm;72848;52.216;5.616;2023-11-18T13:46:27;61.72;52.67;89.84;;
83034;Laerm;72848;52.216;5.616;2023-11-18T13:48:56;58.98;54.11;68.88;;
83034;Laerm;72848;52.216;5.616;2023-11-18T13:51:28;59.27;53.35;78.14;;
83034;Laerm;72848;52.216;5.616;2023-11-18T13:53:57;59.74;52.78;85.26;;
83034;Laerm;72848;52.216;5.616;2023-11-18T13:56:25;57.40;52.48;70.20;;
83034;Laerm;72848;52.216;5.616;2023-11-18T13:58:53;57.83;51.21;73.47;;
83034;Laerm;72848;52.216;5.616;2023-11-18T14:01:22;56.11;50.96;67.99;;